Time;durP1;ratioP1;P1;durP2;ratioP2;P2;SDS_P1;SDS_P2;PMS_P1;PMS_P2;Temp;Humidity;BMP_temperature;BMP_pressure;BME280_temperature;BME280_humidity;BME280_pressure;Samples;Min_cycle;Max_cycle;Signal;HPM_P1;HPM_P2
2023/09/21 00:09:39;;;;;;;;;;;18.70;99.90;;;;;;6667811;89;20056;-77
2023/09/21 00:19:40;;;;;;;;;;;18.60;99.90;;;;;;6669025;89;20529;-78
2023/09/21 00:29:40;;;;;;;;;;;18.50;99.90;;;;;;6674305;89;20065;-77
2023/09/21 00:39:41;;;;;;;;;;;18.40;99.90;;;;;;6670525;89;20063;-77
2023/09/21 00:49:41;;;;;;;;;;;18.20;99.90;;;;;;6666496;89;20071;-78
2023/09/21 00:59:45;;;;;;;;;;;18.00;99.90;;;;;;6665991;89;20688;-78
2023/09/21 01:09:46;;;;;;;;;;;18.00;99.90;;;;;;6665745;89;20064;-79
2023/09/21 01:19:51;;;;;;;;;;;17.90;99.90;;;;;;6666383;89;20057;-81
2023/09/21 01:29:51;;;;;;;;;;;17.90;99.90;;;;;;6666220;88;20130;-78
2023/09/21 01:39:52;;;;;;;;;;;17.80;99.90;;;;;;6664503;89;20218;-76
2023/09/21 01:49:52;;;;;;;;;;;17.80;99.90;;;;;;6662781;89;21361;-78
2023/09/21 01:59:52;;;;;;;;;;;18.00;99.90;;;;;;6668971;89;20112;-77
2023/09/21 02:09:53;;;;;;;;;;;18.20;99.90;;;;;;6665687;89;20122;-78
2023/09/21 02:19:54;;;;;;;;;;;18.40;99.90;;;;;;6670929;88;20061;-77
2023/09/21 02:29:55;;;;;;;;;;;18.30;99.90;;;;;;6664302;89;20088;-77
2023/09/21 02:39:55;;;;;;;;;;;18.20;99.90;;;;;;6662898;89;20064;-78
2023/09/21 02:49:56;;;;;;;;;;;18.10;99.90;;;;;;6664216;89;20058;-78
2023/09/21 02:59:57;;;;;;;;;;;18.10;99.90;;;;;;6664107;89;20086;-78
2023/09/21 03:09:59;;;;;;;;;;;18.00;99.90;;;;;;6662269;89;20056;-78
2023/09/21 03:30:41;;;;;;;;;;;17.80;99.90;;;;;;6699116;88;20056;-80
2023/09/21 03:40:42;;;;;;;;;;;17.80;99.90;;;;;;6685354;89;20085;-78
2023/09/21 03:50:43;;;;;;;;;;;17.80;99.90;;;;;;6677013;89;20146;-78
2023/09/21 04:00:46;;;;;;;;;;;17.80;99.90;;;;;;6676285;89;20665;-78
2023/09/21 04:10:47;;;;;;;;;;;18.00;99.90;;;;;;6689028;88;20141;-78
2023/09/21 04:20:47;;;;;;;;;;;17.90;99.90;;;;;;6708707;88;20147;-78
2023/09/21 04:30:48;;;;;;;;;;;17.80;99.90;;;;;;6708447;88;20067;-78
2023/09/21 04:40:50;;;;;;;;;;;17.80;99.90;;;;;;6694662;88;20067;-81
2023/09/21 04:50:51;;;;;;;;;;;17.80;99.90;;;;;;6696850;88;20073;-79
2023/09/21 05:00:51;;;;;;;;;;;17.90;99.90;;;;;;6702430;88;20114;-78
2023/09/21 05:10:52;;;;;;;;;;;17.80;99.90;;;;;;6699688;88;20064;-78
2023/09/21 05:20:52;;;;;;;;;;;17.70;99.90;;;;;;6692894;88;20162;-80
2023/09/21 05:30:54;;;;;;;;;;;17.60;99.90;;;;;;6709991;88;20054;-79
2023/09/21 05:40:55;;;;;;;;;;;17.70;99.90;;;;;;6708348;88;20117;-79
2023/09/21 05:50:55;;;;;;;;;;;17.70;99.90;;;;;;6708694;88;20051;-79
2023/09/21 06:00:55;;;;;;;;;;;17.80;99.90;;;;;;6710071;88;20052;-79
2023/09/21 06:10:56;;;;;;;;;;;18.00;99.90;;;;;;6709026;88;20075;-78
2023/09/21 06:20:58;;;;;;;;;;;18.20;99.90;;;;;;6708997;88;20143;-77
2023/09/21 06:31:05;;;;;;;;;;;18.30;99.90;;;;;;6702528;88;20055;-77
2023/09/21 06:41:07;;;;;;;;;;;18.50;99.90;;;;;;6704984;88;20227;-77
2023/09/21 06:51:10;;;;;;;;;;;18.90;99.90;;;;;;6698994;88;20066;-77
2023/09/21 07:01:11;;;;;;;;;;;19.20;99.90;;;;;;6701645;88;20091;-78
2023/09/21 07:11:13;;;;;;;;;;;19.50;99.90;;;;;;6703177;88;20558;-78
2023/09/21 07:21:14;;;;;;;;;;;19.90;99.90;;;;;;6703337;88;20093;-78
2023/09/21 07:31:14;;;;;;;;;;;19.70;99.90;;;;;;6700346;88;20059;-77
2023/09/21 07:41:15;;;;;;;;;;;19.70;99.90;;;;;;6705720;88;20164;-78
2023/09/21 07:51:15;;;;;;;;;;;19.80;99.90;;;;;;6703282;88;20067;-77
2023/09/21 08:01:16;;;;;;;;;;;20.00;99.90;;;;;;6704083;88;20643;-77
2023/09/21 08:11:16;;;;;;;;;;;20.10;99.90;;;;;;6702898;88;20551;-78
2023/09/21 08:21:17;;;;;;;;;;;20.30;99.90;;;;;;6705274;88;20082;-77
2023/09/21 08:31:19;;;;;;;;;;;20.30;99.90;;;;;;6701942;88;20556;-80
2023/09/21 08:41:20;;;;;;;;;;;20.20;99.90;;;;;;6707643;88;20064;-78
2023/09/21 08:51:21;;;;;;;;;;;20.30;99.90;;;;;;6710816;88;20497;-78
2023/09/21 09:01:21;;;;;;;;;;;20.20;99.90;;;;;;6705411;88;20063;-78
2023/09/21 09:21:25;;;;;;;;;;;20.50;99.90;;;;;;6726428;88;20210;-79
2023/09/21 09:31:27;;;;;;;;;;;20.70;99.90;;;;;;6721992;88;20097;-80
2023/09/21 09:41:28;;;;;;;;;;;20.90;99.90;;;;;;6722648;88;20051;-79
2023/09/21 09:51:34;;;;;;;;;;;21.10;99.90;;;;;;6721252;88;20177;-79
2023/09/21 10:01:37;;;;;;;;;;;21.20;99.90;;;;;;6720800;88;20054;-79
2023/09/21 10:11:39;;;;;;;;;;;21.30;99.90;;;;;;6721742;88;20088;-80
2023/09/21 10:21:43;;;;;;;;;;;21.40;99.90;;;;;;6724041;88;20060;-80
2023/09/21 10:31:44;;;;;;;;;;;21.70;99.90;;;;;;6722028;88;20058;-82
2023/09/21 10:41:45;;;;;;;;;;;21.80;99.90;;;;;;6722717;88;20084;-79
2023/09/21 10:51:46;;;;;;;;;;;22.00;99.90;;;;;;6729027;88;20509;-79
2023/09/21 11:01:48;;;;;;;;;;;22.00;99.90;;;;;;6724013;88;20046;-79
2023/09/21 11:11:49;;;;;;;;;;;22.20;99.90;;;;;;6717505;88;20132;-79
2023/09/21 11:21:49;;;;;;;;;;;22.40;99.90;;;;;;6724575;88;20126;-79
2023/09/21 11:31:51;;;;;;;;;;;22.40;99.90;;;;;;6708559;88;20087;-80
2023/09/21 11:41:51;;;;;;;;;;;22.40;99.90;;;;;;6701819;88;20064;-79
2023/09/21 11:51:52;;;;;;;;;;;22.30;99.90;;;;;;6695188;88;20176;-79
2023/09/21 12:01:56;;;;;;;;;;;22.00;99.90;;;;;;6708498;88;20063;-81
2023/09/21 12:11:58;;;;;;;;;;;20.90;99.90;;;;;;6702958;88;20118;-79
2023/09/21 12:21:59;;;;;;;;;;;20.80;99.90;;;;;;6714069;88;20076;-79
2023/09/21 12:32:04;;;;;;;;;;;20.80;99.90;;;;;;6709114;88;20511;-79
2023/09/21 12:42:05;;;;;;;;;;;20.50;99.90;;;;;;6706623;88;20083;-79
2023/09/21 12:52:05;;;;;;;;;;;20.50;99.90;;;;;;6707489;88;20763;-79
2023/09/21 13:02:07;;;;;;;;;;;20.50;99.90;;;;;;6704589;88;20541;-79
2023/09/21 13:12:08;;;;;;;;;;;20.60;99.90;;;;;;6710300;88;20105;-79
2023/09/21 13:22:09;;;;;;;;;;;20.70;99.90;;;;;;6726928;88;20073;-80
2023/09/21 13:32:10;;;;;;;;;;;20.90;99.90;;;;;;6731092;88;20070;-84
2023/09/21 13:42:11;;;;;;;;;;;21.00;99.90;;;;;;6725101;88;20759;-80
2023/09/21 13:52:15;;;;;;;;;;;20.90;99.90;;;;;;6720893;88;20059;-80
2023/09/21 14:02:17;;;;;;;;;;;21.00;99.90;;;;;;6729145;88;20082;-81
2023/09/21 14:12:18;;;;;;;;;;;21.20;99.90;;;;;;6722269;88;20076;-80
2023/09/21 14:22:18;;;;;;;;;;;21.10;99.90;;;;;;6712556;88;20066;-79
2023/09/21 14:32:19;;;;;;;;;;;21.20;99.90;;;;;;6726555;88;20100;-77
2023/09/21 14:42:19;;;;;;;;;;;21.20;99.90;;;;;;6718002;88;20086;-79
2023/09/21 14:52:20;;;;;;;;;;;21.10;99.90;;;;;;6712913;88;20103;-78
2023/09/21 15:02:20;;;;;;;;;;;21.10;99.90;;;;;;6725836;88;20507;-80
2023/09/21 15:22:24;;;;;;;;;;;19.10;99.90;;;;;;6728394;88;20104;-80
2023/09/21 15:32:25;;;;;;;;;;;17.70;99.90;;;;;;6724330;88;20086;-79
2023/09/21 15:42:25;;;;;;;;;;;17.30;99.90;;;;;;6721505;88;20093;-79
2023/09/21 15:52:26;;;;;;;;;;;17.10;99.90;;;;;;6725577;88;20072;-78
2023/09/21 16:02:27;;;;;;;;;;;17.00;99.90;;;;;;6725734;88;20070;-78
2023/09/21 16:12:28;;;;;;;;;;;17.10;99.90;;;;;;6722677;88;20068;-78
2023/09/21 16:22:29;;;;;;;;;;;17.10;99.90;;;;;;6722346;88;20060;-76
2023/09/21 16:32:29;;;;;;;;;;;17.10;99.90;;;;;;6715486;88;20133;-77
2023/09/21 16:42:30;;;;;;;;;;;17.20;99.90;;;;;;6723542;88;20077;-76
2023/09/21 16:52:30;;;;;;;;;;;17.20;99.90;;;;;;6717920;88;20092;-76
2023/09/21 17:02:34;;;;;;;;;;;17.20;99.90;;;;;;6722682;88;20075;-77
2023/09/21 17:12:34;;;;;;;;;;;17.20;99.90;;;;;;6715373;88;20112;-76
2023/09/21 17:22:36;;;;;;;;;;;17.20;99.90;;;;;;6719841;88;20099;-77
2023/09/21 17:32:37;;;;;;;;;;;17.20;99.90;;;;;;6721789;88;20241;-75
2023/09/21 17:42:37;;;;;;;;;;;16.60;99.90;;;;;;6720066;88;20086;-77
2023/09/21 17:52:38;;;;;;;;;;;15.80;99.90;;;;;;6715203;88;20686;-78
2023/09/21 18:02:41;;;;;;;;;;;15.30;99.90;;;;;;6728381;88;20181;-77
2023/09/21 18:12:41;;;;;;;;;;;15.20;99.90;;;;;;6721914;88;20068;-76
2023/09/21 18:22:42;;;;;;;;;;;15.30;99.90;;;;;;6730490;88;20067;-78
2023/09/21 18:32:42;;;;;;;;;;;15.30;99.90;;;;;;6715623;88;20112;-77
2023/09/21 18:42:43;;;;;;;;;;;15.30;99.90;;;;;;6718501;88;20088;-76
2023/09/21 18:52:43;;;;;;;;;;;15.30;99.90;;;;;;6718826;88;20149;-76
2023/09/21 19:02:44;;;;;;;;;;;15.10;99.90;;;;;;6718749;88;20591;-77
2023/09/21 19:12:44;;;;;;;;;;;15.10;99.90;;;;;;6720079;88;20208;-77
2023/09/21 19:22:47;;;;;;;;;;;15.00;99.90;;;;;;6726550;88;20083;-76
2023/09/21 19:32:49;;;;;;;;;;;14.90;99.90;;;;;;6721761;88;20662;-77
2023/09/21 19:42:50;;;;;;;;;;;15.00;99.90;;;;;;6713298;88;20573;-77
2023/09/21 19:52:51;;;;;;;;;;;15.00;99.90;;;;;;6713396;88;20059;-76
2023/09/21 20:02:51;;;;;;;;;;;15.00;99.90;;;;;;6720421;88;20059;-76
2023/09/21 20:12:52;;;;;;;;;;;15.00;99.90;;;;;;6720753;88;20079;-76
2023/09/21 20:22:52;;;;;;;;;;;14.90;99.90;;;;;;6723493;88;20066;-76
2023/09/21 20:32:53;;;;;;;;;;;14.90;99.90;;;;;;6724763;88;20127;-77
2023/09/21 20:42:53;;;;;;;;;;;14.80;99.90;;;;;;6721861;88;20060;-77
2023/09/21 20:52:54;;;;;;;;;;;14.80;99.90;;;;;;6720363;88;20482;-76
2023/09/21 21:02:55;;;;;;;;;;;14.90;99.90;;;;;;6727492;88;20582;-76
2023/09/21 21:12:55;;;;;;;;;;;14.80;99.90;;;;;;6721946;77;20141;-76
2023/09/21 21:22:56;;;;;;;;;;;14.70;99.90;;;;;;6711153;88;20058;-75
2023/09/21 21:32:56;;;;;;;;;;;14.70;99.90;;;;;;6701413;88;20058;-75
2023/09/21 21:42:57;;;;;;;;;;;14.90;99.90;;;;;;6704104;88;20064;-75
2023/09/21 21:52:57;;;;;;;;;;;14.80;99.90;;;;;;6703348;88;20121;-76
2023/09/21 22:02:58;;;;;;;;;;;14.90;99.90;;;;;;6699885;88;20079;-76
2023/09/21 22:13:00;;;;;;;;;;;14.80;99.90;;;;;;6703707;88;20525;-75
2023/09/21 22:23:01;;;;;;;;;;;14.80;99.90;;;;;;6700601;88;20468;-76
2023/09/21 22:33:01;;;;;;;;;;;14.70;99.90;;;;;;6701331;88;20051;-75
2023/09/21 22:43:03;;;;;;;;;;;14.70;99.90;;;;;;6705505;88;20527;-76
2023/09/21 22:53:03;;;;;;;;;;;14.60;99.90;;;;;;6698753;88;20103;-76
2023/09/21 23:03:04;;;;;;;;;;;14.60;99.90;;;;;;6701919;88;20126;-76
2023/09/21 23:13:07;;;;;;;;;;;14.50;99.90;;;;;;6703984;88;20530;-76
2023/09/21 23:23:08;;;;;;;;;;;14.50;99.90;;;;;;6710779;88;20505;-77
2023/09/21 23:33:09;;;;;;;;;;;14.40;99.90;;;;;;6708753;88;20063;-76
2023/09/21 23:43:10;;;;;;;;;;;14.40;99.90;;;;;;6701093;88;20060;-77
2023/09/21 23:53:15;;;;;;;;;;;14.20;99.90;;;;;;6698119;88;20070;-76
